Terminal Aerodrome Forecast
Issued by NWS

Current Version | Previous Version | Text Only | Print | Product List | Glossary Off
Versions: 1 2 3 4 5 6 7 8 9 10 11 12 13 14 15 16 17 18

135
FTUS41 KPBZ 180531
TAFHLG
TAF
KHLG 180531Z 1806/1906 20005KT P6SM SKC WS020/27035KT
     FM181400 21009KT P6SM SKC
     FM190300 24006KT P6SM OVC050=

USA.gov is the U.S. government's official web portal to all federal, state and local government web resources and services.